Time;durP1;ratioP1;P1;durP2;ratioP2;P2;SDS_P1;SDS_P2;PMS_P1;PMS_P2;Temp;Humidity;BMP_temperature;BMP_pressure;BME280_temperature;BME280_humidity;BME280_pressure;Samples;Min_cycle;Max_cycle;Signal;HPM_P1;HPM_P2
2023/10/01 00:00:52;;;;;;;18.52;10.90;;;;;;;17.05;55.64;100354.98;1859702;77;21014;-72
2023/10/01 00:03:21;;;;;;;17.95;11.18;;;;;;;17.06;55.25;100358.90;1859690;77;20998;-73
2023/10/01 00:05:50;;;;;;;21.55;11.38;;;;;;;17.08;55.07;100355.89;1859435;77;20987;-71
2023/10/01 00:08:19;;;;;;;18.77;10.70;;;;;;;17.10;55.01;100360.64;1859758;77;21031;-73
2023/10/01 00:10:48;;;;;;;20.32;11.35;;;;;;;17.10;54.95;100352.33;1859730;77;21023;-72
2023/10/01 00:13:20;;;;;;;19.85;11.15;;;;;;;17.09;54.99;100354.27;1859788;77;20994;-72
2023/10/01 00:15:49;;;;;;;19.37;10.38;;;;;;;17.09;54.77;100361.18;1859528;77;21022;-72
2023/10/01 00:18:18;;;;;;;19.10;11.00;;;;;;;17.07;54.67;100352.81;1859983;77;21035;-72
2023/10/01 00:20:48;;;;;;;16.30;11.03;;;;;;;17.06;54.88;100351.13;1859647;77;21469;-72
2023/10/01 00:23:17;;;;;;;20.52;11.30;;;;;;;17.07;54.77;100348.66;1859622;77;20971;-72
2023/10/01 00:25:46;;;;;;;17.82;10.88;;;;;;;17.05;54.78;100360.52;1859430;77;21070;-72
2023/10/01 00:28:16;;;;;;;18.23;10.90;;;;;;;17.04;54.77;100349.15;1853515;77;21011;-72
2023/10/01 00:30:46;;;;;;;18.12;10.80;;;;;;;17.03;54.45;100357.16;1853997;77;21026;-73
2023/10/01 00:33:15;;;;;;;18.95;11.00;;;;;;;17.01;54.35;100350.47;1853752;77;21022;-70
2023/10/01 00:35:45;;;;;;;20.92;11.63;;;;;;;17.02;54.44;100354.08;1848304;77;21447;-73
2023/10/01 00:38:16;;;;;;;18.48;11.05;;;;;;;17.01;54.58;100353.24;1853569;77;21074;-71
2023/10/01 00:40:44;;;;;;;19.80;10.63;;;;;;;16.99;54.59;100349.88;1853865;77;21039;-71
2023/10/01 00:43:13;;;;;;;19.95;10.68;;;;;;;17.00;54.65;100353.48;1853676;77;21022;-72
2023/10/01 00:45:42;;;;;;;19.05;11.10;;;;;;;16.98;54.58;100354.27;1853651;77;21003;-71
2023/10/01 00:48:14;;;;;;;20.08;11.30;;;;;;;16.99;54.66;100358.72;1853507;77;21431;-71
2023/10/01 00:50:44;;;;;;;20.00;11.03;;;;;;;16.97;54.87;100353.96;1853603;77;21445;-71
2023/10/01 00:53:14;;;;;;;20.35;10.68;;;;;;;16.98;54.49;100354.27;1853759;77;21050;-72
2023/10/01 00:55:42;;;;;;;19.98;10.78;;;;;;;16.97;54.13;100343.73;1853544;77;21560;-73
2023/10/01 00:58:11;;;;;;;17.70;10.93;;;;;;;16.99;53.42;100346.27;1820114;77;21093;-73
2023/10/01 01:00:42;;;;;;;15.53;10.48;;;;;;;17.00;52.41;100337.72;1853807;77;21418;-72
2023/10/01 01:03:18;;;;;;;19.45;11.83;;;;;;;17.06;51.53;100345.59;1853628;77;21003;-73
2023/10/01 01:05:57;;;;;;;21.07;11.08;;;;;;;17.12;50.96;100348.78;1821781;77;21493;-73
2023/10/01 01:08:22;;;;;;;21.80;11.18;;;;;;;17.15;50.43;100335.84;1853176;77;21030;-73
2023/10/01 01:10:52;;;;;;;21.23;11.60;;;;;;;17.18;50.12;100345.04;1853892;77;20988;-73
2023/10/01 01:13:24;;;;;;;23.47;12.28;;;;;;;17.20;49.93;100335.11;1853797;77;20979;-73
2023/10/01 01:15:52;;;;;;;18.65;11.43;;;;;;;17.20;49.83;100332.34;1853621;77;21046;-73
2023/10/01 01:18:22;;;;;;;18.82;10.88;;;;;;;17.18;50.12;100340.89;1853958;77;20991;-73
2023/10/01 01:21:14;;;;;;;19.07;11.73;;;;;;;17.17;50.08;100337.82;1853828;77;21387;-73
2023/10/01 01:23:25;;;;;;;20.08;11.48;;;;;;;17.15;49.87;100342.76;1814654;77;21108;-72
2023/10/01 01:25:54;;;;;;;18.12;11.45;;;;;;;17.15;49.97;100338.61;1853603;77;21042;-71
2023/10/01 01:28:30;;;;;;;19.23;11.53;;;;;;;17.14;50.05;100330.00;1853511;77;21034;-72
2023/10/01 01:30:59;;;;;;;22.50;11.83;;;;;;;17.13;50.15;100335.23;1853561;77;21050;-72
2023/10/01 01:33:31;;;;;;;20.55;11.73;;;;;;;17.10;50.16;100332.95;1853618;77;21019;-71
2023/10/01 01:36:03;;;;;;;23.52;11.80;;;;;;;17.09;50.28;100335.42;1853502;77;21043;-73
2023/10/01 01:38:34;;;;;;;21.17;11.88;;;;;;;17.07;50.55;100337.59;1853661;77;20999;-70
2023/10/01 01:41:03;;;;;;;18.15;11.57;;;;;;;17.04;50.65;100335.30;1853667;77;21506;-71
2023/10/01 01:43:32;;;;;;;21.95;12.23;;;;;;;17.01;50.81;100333.02;1853609;77;21086;-72
2023/10/01 01:46:08;;;;;;;19.50;11.83;;;;;;;16.96;51.00;100327.37;1853540;77;21991;-74
2023/10/01 01:48:34;;;;;;;23.70;12.18;;;;;;;16.92;51.23;100324.23;1854081;77;21030;-73
2023/10/01 01:51:03;;;;;;;24.47;11.80;;;;;;;16.87;51.36;100322.70;1853575;77;21027;-72
2023/10/01 01:53:35;;;;;;;22.27;12.03;;;;;;;16.80;51.53;100324.21;1853939;77;21035;-72
2023/10/01 01:56:16;;;;;;;24.20;11.53;;;;;;;16.73;51.76;100317.11;1853721;77;21423;-72
2023/10/01 01:58:44;;;;;;;23.55;12.65;;;;;;;16.68;52.00;100315.06;1853909;77;20964;-73
2023/10/01 02:03:46;;;;;;;19.25;11.48;;;;;;;16.60;52.40;100320.08;1853707;77;20963;-73
2023/10/01 02:06:26;;;;;;;22.70;12.60;;;;;;;16.54;52.71;100307.20;1853498;77;21069;-72
2023/10/01 02:09:00;;;;;;;24.63;13.18;;;;;;;16.49;52.97;100309.30;1853578;77;21052;-73
2023/10/01 02:11:32;;;;;;;22.15;12.90;;;;;;;16.45;53.10;100311.70;1853700;77;21074;-72
2023/10/01 02:13:59;;;;;;;28.05;13.00;;;;;;;16.42;53.21;100320.48;1821700;77;21046;-71
2023/10/01 02:19:11;;;;;;;22.25;13.15;;;;;;;16.29;53.63;100322.08;1853819;77;21046;-73
2023/10/01 02:24:22;;;;;;;26.50;13.70;;;;;;;16.16;54.14;100325.86;1854014;77;21039;-71
2023/10/01 02:26:53;;;;;;;25.77;13.83;;;;;;;16.10;54.30;100326.80;1853866;77;21054;-72
2023/10/01 02:29:24;;;;;;;27.22;14.55;;;;;;;16.05;54.60;100323.06;1853693;77;21493;-72
2023/10/01 02:31:57;;;;;;;29.20;15.68;;;;;;;16.00;54.83;100329.84;1853699;77;21055;-73
2023/10/01 02:34:28;;;;;;;31.02;16.30;;;;;;;15.95;54.99;100336.61;1848682;77;21019;-71
2023/10/01 02:36:58;;;;;;;29.98;16.70;;;;;;;15.86;55.25;100319.52;1853978;77;20995;-72
2023/10/01 02:39:27;;;;;;;28.75;17.12;;;;;;;15.80;55.45;100320.45;1853616;77;20999;-71
2023/10/01 02:42:31;;;;;;;30.68;17.17;;;;;;;15.78;55.52;100319.84;1853565;77;21447;-72
2023/10/01 02:44:48;;;;;;;31.85;16.85;;;;;;;15.75;55.73;100307.87;1836350;77;21046;-71
2023/10/01 02:47:20;;;;;;;33.63;16.75;;;;;;;15.66;56.04;100313.42;1852946;77;21003;-71
2023/10/01 02:49:58;;;;;;;;;;;;;;;15.61;56.25;100318.80;1856509;77;21034;-71
2023/10/01 02:52:36;;;;;;;30.90;16.10;;;;;;;15.54;56.62;100310.54;1852830;77;20553;-72
2023/10/01 02:55:00;;;;;;;28.15;16.40;;;;;;;15.46;56.89;100313.62;1853539;77;21070;-72
2023/10/01 02:57:33;;;;;;;32.95;16.97;;;;;;;15.41;57.09;100311.55;1854026;77;21003;-73
2023/10/01 03:02:51;;;;;;;32.05;17.42;;;;;;;15.36;57.45;100322.98;1854027;77;21617;-72
2023/10/01 03:08:40;;;;;;;33.40;17.30;;;;;;;15.25;57.96;100309.95;1853706;77;21069;-72
2023/10/01 03:10:31;;;;;;;33.05;18.35;;;;;;;15.17;58.20;100318.85;1853023;77;21011;-72
2023/10/01 03:13:14;;;;;;;34.60;18.95;;;;;;;15.13;58.49;100314.02;1853506;77;21007;-71
2023/10/01 03:15:35;;;;;;;35.68;18.73;;;;;;;15.06;58.73;100309.95;1853430;77;20995;-72
2023/10/01 03:18:34;;;;;;;34.78;17.60;;;;;;;15.03;58.84;100317.84;1853662;77;21030;-72
2023/10/01 03:23:25;;;;;;;26.62;14.43;;;;;;;14.97;59.21;100307.73;1853702;77;21011;-72
2023/10/01 03:31:22;;;;;;;24.50;13.70;;;;;;;15.04;58.84;100312.10;1854086;77;21047;-71
2023/10/01 03:33:58;;;;;;;22.05;13.10;;;;;;;15.08;58.71;100316.62;1853482;77;21109;-72
2023/10/01 03:36:32;;;;;;;27.27;14.25;;;;;;;15.10;58.63;100315.86;1853608;77;21003;-72
2023/10/01 03:39:23;;;;;;;25.75;14.13;;;;;;;15.10;58.70;100315.33;1821807;77;20991;-72
2023/10/01 03:41:52;;;;;;;26.23;14.33;;;;;;;15.10;58.75;100313.94;1853021;77;21046;-74
2023/10/01 03:44:11;;;;;;;24.98;14.07;;;;;;;15.12;58.71;100313.17;1852761;77;21066;-72
2023/10/01 03:46:46;;;;;;;23.38;13.75;;;;;;;15.12;58.72;100317.85;1853726;77;21039;-73
2023/10/01 03:49:37;;;;;;;26.95;13.98;;;;;;;15.12;58.83;100324.22;1853939;77;21043;-73
2023/10/01 03:52:09;;;;;;;24.57;13.85;;;;;;;15.12;58.93;100328.89;1853697;77;21003;-71
2023/10/01 03:57:25;;;;;;;22.30;13.93;;;;;;;15.12;59.08;100336.64;1854083;77;21007;-71
2023/10/01 03:59:56;;;;;;;22.75;13.38;;;;;;;15.12;59.19;100339.40;1853719;77;21051;-72
2023/10/01 04:02:49;;;;;;;23.67;13.53;;;;;;;15.09;59.37;100345.91;1854003;77;20991;-73
2023/10/01 04:05:23;;;;;;;23.50;13.95;;;;;;;15.05;59.54;100351.58;1853625;77;21010;-71
2023/10/01 04:07:55;;;;;;;24.12;13.95;;;;;;;15.07;59.65;100352.19;1853713;77;21022;-71
2023/10/01 04:13:12;;;;;;;24.47;14.07;;;;;;;15.06;59.97;100359.63;1853656;77;21478;-72
2023/10/01 04:15:46;;;;;;;22.25;13.38;;;;;;;15.04;60.18;100368.67;1853704;77;21003;-71
2023/10/01 04:20:55;;;;;;;21.40;12.58;;;;;;;14.93;61.30;100369.92;1853884;77;20975;-72
2023/10/01 04:23:29;;;;;;;24.52;14.35;;;;;;;14.90;61.98;100372.59;1853269;77;20972;-73
2023/10/01 04:26:06;;;;;;;24.40;13.25;;;;;;;14.85;62.43;100372.44;1853522;77;20980;-73
2023/10/01 04:28:44;;;;;;;24.63;13.30;;;;;;;14.83;62.89;100375.42;1805621;78;21466;-73
2023/10/01 04:31:19;;;;;;;24.20;12.65;;;;;;;14.83;63.48;100375.42;1826071;78;21069;-73
2023/10/01 04:33:50;;;;;;;21.17;12.47;;;;;;;14.85;63.79;100384.31;1826116;78;21031;-71
2023/10/01 04:36:20;;;;;;;24.65;14.90;;;;;;;14.88;64.11;100385.77;1825971;78;21034;-71
2023/10/01 04:38:59;;;;;;;24.45;14.03;;;;;;;14.86;64.82;100383.24;1826066;78;21443;-72
2023/10/01 04:41:22;;;;;;;23.27;13.45;;;;;;;14.84;65.55;100379.02;1825417;77;21011;-72
2023/10/01 04:43:52;;;;;;;24.45;13.35;;;;;;;14.83;65.87;100376.80;1826142;78;21057;-73
2023/10/01 04:46:24;;;;;;;31.82;17.55;;;;;;;14.87;66.26;100375.81;1826041;77;21079;-71
2023/10/01 04:48:54;;;;;;;22.40;12.60;;;;;;;14.90;66.50;100387.77;1826166;78;21492;-73
2023/10/01 04:51:24;;;;;;;21.17;12.58;;;;;;;14.95;66.83;100381.58;1826126;78;21050;-72
2023/10/01 04:54:00;;;;;;;22.80;11.97;;;;;;;14.98;67.30;100378.39;1825971;77;21152;-71
2023/10/01 04:56:25;;;;;;;24.95;13.20;;;;;;;15.01;67.63;100391.73;1825777;78;21078;-72
2023/10/01 04:58:55;;;;;;;19.42;12.78;;;;;;;15.05;68.09;100390.21;1826189;77;21030;-72
2023/10/01 05:01:24;;;;;;;23.05;12.78;;;;;;;15.09;68.51;100391.44;1826027;78;21065;-72
2023/10/01 05:03:56;;;;;;;20.40;12.50;;;;;;;15.10;69.00;100396.73;1826094;78;21473;-74
2023/10/01 05:06:27;;;;;;;20.57;12.23;;;;;;;15.13;69.45;100392.14;1826084;78;20979;-72
2023/10/01 05:08:56;;;;;;;24.57;12.03;;;;;;;15.18;69.89;100392.84;1826191;78;21046;-73
2023/10/01 05:11:32;;;;;;;16.32;11.48;;;;;;;15.25;70.21;100394.15;1826205;78;21038;-73
2023/10/01 05:14:04;;;;;;;19.23;11.63;;;;;;;15.29;70.55;100393.46;1825980;78;21046;-72
2023/10/01 05:16:38;;;;;;;18.15;11.70;;;;;;;15.33;70.87;100385.03;1807056;78;21010;-70
2023/10/01 05:19:10;;;;;;;19.45;11.90;;;;;;;15.37;71.23;100382.65;1826207;78;21019;-73
2023/10/01 05:21:47;;;;;;;20.90;11.87;;;;;;;15.38;71.79;100393.47;1826284;78;20963;-73
2023/10/01 05:24:41;;;;;;;20.75;11.83;;;;;;;15.41;72.12;100384.72;1808798;77;21046;-72
2023/10/01 05:26:51;;;;;;;17.40;11.12;;;;;;;15.43;72.47;100385.34;1796684;78;21055;-72
2023/10/01 05:29:21;;;;;;;21.10;11.12;;;;;;;15.47;72.72;100389.33;1847842;77;21093;-73
2023/10/01 05:31:51;;;;;;;16.17;10.82;;;;;;;15.51;72.96;100394.70;1853580;77;21529;-73
2023/10/01 05:34:22;;;;;;;16.62;11.20;;;;;;;15.60;73.16;100393.04;1853731;77;21542;-74
2023/10/01 05:36:52;;;;;;;16.52;10.40;;;;;;;15.69;73.36;100409.64;1853793;77;21054;-73
2023/10/01 05:39:23;;;;;;;16.02;10.50;;;;;;;15.77;73.70;100410.70;1853802;77;21422;-72
2023/10/01 05:41:54;;;;;;;15.88;10.45;;;;;;;15.83;74.09;100411.16;1822382;77;21086;-72
2023/10/01 05:44:22;;;;;;;14.93;10.15;;;;;;;15.92;74.25;100417.21;1853659;77;21504;-72
2023/10/01 05:46:51;;;;;;;13.55;10.35;;;;;;;16.01;74.38;100421.34;1853637;77;20967;-71
2023/10/01 05:49:20;;;;;;;17.02;10.00;;;;;;;16.09;74.56;100426.02;1853782;77;21066;-72
2023/10/01 05:51:50;;;;;;;16.32;10.55;;;;;;;16.19;74.86;100422.69;1853736;77;21002;-73
2023/10/01 05:54:19;;;;;;;13.20;9.05;;;;;;;16.28;74.94;100423.23;1821555;77;21074;-73
2023/10/01 05:56:55;;;;;;;17.73;10.50;;;;;;;16.35;75.02;100423.45;1853811;77;21026;-71
2023/10/01 05:59:22;;;;;;;15.40;9.85;;;;;;;16.44;75.11;100428.10;1853821;77;21007;-73
2023/10/01 06:01:51;;;;;;;18.27;10.65;;;;;;;16.52;75.20;100426.38;1853672;77;21548;-73
2023/10/01 06:04:20;;;;;;;16.60;10.30;;;;;;;16.58;75.31;100433.73;1853914;77;21034;-73
2023/10/01 06:06:50;;;;;;;19.60;10.38;;;;;;;16.64;75.40;100438.33;1853664;77;21034;-69
2023/10/01 06:09:21;;;;;;;16.97;10.95;;;;;;;16.69;75.41;100432.95;1854031;77;21003;-72
2023/10/01 06:12:03;;;;;;;17.23;10.40;;;;;;;16.73;75.52;100440.23;1853762;77;20980;-73
2023/10/01 06:17:10;;;;;;;17.57;11.25;;;;;;;16.78;75.81;100441.75;1853939;77;21019;-73
2023/10/01 06:19:42;;;;;;;18.32;10.25;;;;;;;16.79;76.00;100438.75;1821655;77;21073;-72
2023/10/01 06:22:22;;;;;;;18.35;11.68;;;;;;;16.83;76.20;100439.66;1853582;77;21054;-72
2023/10/01 06:24:46;;;;;;;21.00;11.95;;;;;;;16.83;76.39;100444.66;1853553;77;21003;-73
2023/10/01 06:27:19;;;;;;;20.37;12.68;;;;;;;16.84;76.61;100451.88;1853706;77;21011;-71
2023/10/01 06:29:51;;;;;;;18.60;11.90;;;;;;;16.85;76.74;100453.56;1853516;77;20995;-72
2023/10/01 06:32:21;;;;;;;19.92;12.43;;;;;;;16.85;76.93;100453.56;1853876;77;20991;-73
2023/10/01 06:34:57;;;;;;;22.22;12.40;;;;;;;16.87;77.04;100451.40;1848512;77;21078;-73
2023/10/01 06:37:39;;;;;;;20.52;12.40;;;;;;;16.91;77.15;100453.18;1853871;77;21026;-72
2023/10/01 06:39:56;;;;;;;18.52;12.20;;;;;;;16.99;77.17;100452.83;1853009;77;21469;-72
2023/10/01 06:42:25;;;;;;;19.67;12.58;;;;;;;17.04;77.10;100472.34;1853951;77;20995;-73
2023/10/01 06:44:58;;;;;;;20.72;12.70;;;;;;;17.08;77.06;100468.86;1853652;77;21427;-74
2023/10/01 06:47:28;;;;;;;19.80;12.00;;;;;;;17.11;77.02;100475.30;1853566;77;21469;-73
2023/10/01 06:52:41;;;;;;;19.70;12.00;;;;;;;17.17;77.01;100469.89;1853815;77;21010;-73
2023/10/01 06:55:25;;;;;;;21.20;12.43;;;;;;;17.18;77.04;100470.19;1853621;77;21022;-73
2023/10/01 06:57:40;;;;;;;20.52;12.30;;;;;;;17.15;77.14;100470.66;1822331;77;21039;-73
2023/10/01 07:00:21;;;;;;;17.17;12.43;;;;;;;17.11;77.33;100475.84;1853860;77;21633;-73
2023/10/01 07:02:45;;;;;;;17.32;11.73;;;;;;;17.13;77.47;100477.83;1853551;77;20997;-74
2023/10/01 07:05:21;;;;;;;19.85;12.68;;;;;;;17.15;77.54;100483.97;1853903;77;21023;-74
2023/10/01 07:07:49;;;;;;;18.30;12.00;;;;;;;17.17;77.60;100492.04;1853616;77;21047;-73
2023/10/01 07:10:20;;;;;;;18.20;12.33;;;;;;;17.21;77.62;100487.71;1853830;77;21473;-71
2023/10/01 07:13:04;;;;;;;18.60;11.85;;;;;;;17.22;77.56;100497.16;1853588;77;21465;-74
2023/10/01 07:15:32;;;;;;;18.55;11.43;;;;;;;17.23;77.60;100501.62;1853671;77;21435;-72
2023/10/01 07:18:13;;;;;;;18.98;11.70;;;;;;;17.21;77.61;100501.02;1853531;77;21054;-73
2023/10/01 07:20:35;;;;;;;16.67;11.55;;;;;;;17.20;77.72;100507.63;1853328;77;21003;-73
2023/10/01 07:23:06;;;;;;;15.38;10.58;;;;;;;17.19;77.72;100514.25;1822232;77;21034;-73
2023/10/01 07:25:39;;;;;;;17.15;11.05;;;;;;;17.17;77.74;100513.65;1853872;77;21034;-74
2023/10/01 07:28:12;;;;;;;16.60;10.48;;;;;;;17.16;77.79;100509.19;1853726;77;21109;-75
2023/10/01 07:30:46;;;;;;;19.27;11.20;;;;;;;17.17;77.85;100516.42;1859767;77;21007;-74
2023/10/01 07:33:17;;;;;;;16.30;10.08;;;;;;;17.19;77.80;100509.26;1859754;77;21018;-73
2023/10/01 07:35:58;;;;;;;17.85;10.53;;;;;;;17.21;77.72;100512.63;1859688;77;21042;-73
2023/10/01 07:38:19;;;;;;;14.47;10.00;;;;;;;17.21;77.74;100513.47;1859311;77;21636;-73
2023/10/01 07:40:58;;;;;;;17.45;10.45;;;;;;;17.21;77.65;100519.55;1859749;77;21042;-74
2023/10/01 07:43:30;;;;;;;16.90;9.63;;;;;;;17.21;77.56;100514.02;1867778;77;21006;-73
2023/10/01 07:46:02;;;;;;;14.78;9.63;;;;;;;17.23;77.45;100522.93;1868157;77;21053;-73
2023/10/01 07:48:32;;;;;;;13.83;9.13;;;;;;;17.25;77.28;100531.30;1867547;77;21011;-73
2023/10/01 07:51:22;;;;;;;13.48;9.10;;;;;;;17.25;77.23;100521.61;1867216;77;21046;-74
2023/10/01 07:53:42;;;;;;;14.95;9.38;;;;;;;17.27;77.13;100531.91;1862634;77;21414;-74
2023/10/01 07:56:07;;;;;;;15.60;8.90;;;;;;;17.29;76.97;100533.89;1796733;80;21466;-75
2023/10/01 07:58:45;;;;;;;16.12;9.18;;;;;;;17.26;76.75;100527.45;1741505;80;21129;-73
2023/10/01 08:04:19;;;;;;;15.00;8.00;;;;;;;17.17;76.50;100531.65;1832932;78;20975;-73
2023/10/01 08:06:49;;;;;;;13.83;7.92;;;;;;;17.15;76.51;100532.42;1796445;80;21026;-74
2023/10/01 08:09:12;;;;;;;10.85;7.40;;;;;;;17.14;76.42;100536.28;1831440;78;21031;-73
2023/10/01 08:14:35;;;;;;;11.22;7.17;;;;;;;17.10;76.25;100536.45;1703480;84;21597;-82
2023/10/01 08:17:05;;;;;;;14.20;8.23;;;;;;;17.10;76.17;100541.98;1659434;84;21098;-66
2023/10/01 08:19:44;;;;;;;12.68;7.00;;;;;;;17.09;76.43;100537.53;1759623;78;21007;-77
2023/10/01 08:22:14;;;;;;;15.45;7.37;;;;;;;17.14;76.17;100543.73;1796944;80;21097;-75
2023/10/01 08:24:49;;;;;;;11.65;6.00;;;;;;;17.13;75.60;100547.05;1832821;78;21030;-76
2023/10/01 08:27:34;;;;;;;13.50;6.50;;;;;;;17.07;75.25;100543.84;1796969;80;21101;-74
2023/10/01 08:30:20;;;;;;;13.45;6.12;;;;;;;17.03;74.77;100544.02;1814228;78;21035;-75
2023/10/01 08:32:49;;;;;;;11.78;5.65;;;;;;;17.00;74.43;100555.56;1765305;81;21559;-74
2023/10/01 08:35:34;;;;;;;9.95;5.05;;;;;;;16.95;74.11;100553.50;1810616;79;21043;-76
2023/10/01 08:37:59;;;;;;;8.48;4.92;;;;;;;16.90;74.13;100558.02;1735350;81;21074;-77
2023/10/01 08:40:29;;;;;;;8.88;5.08;;;;;;;16.85;74.37;100561.50;1810702;79;21007;-76
2023/10/01 08:42:59;;;;;;;10.78;5.22;;;;;;;16.76;74.60;100560.14;1765370;81;21022;-75
2023/10/01 08:45:37;;;;;;;9.73;5.00;;;;;;;16.72;74.92;100562.53;1810530;79;21035;-75
2023/10/01 08:48:08;;;;;;;8.95;4.87;;;;;;;16.73;75.12;100557.84;1810570;79;21067;-76
2023/10/01 08:50:40;;;;;;;9.20;5.00;;;;;;;16.76;75.25;100569.28;1765344;81;21098;-74
2023/10/01 08:53:12;;;;;;;7.90;4.85;;;;;;;16.73;75.61;100565.60;1811021;79;21131;-76
2023/10/01 09:01:13;;;;;;;8.98;4.40;;;;;;;16.55;75.66;100564.22;1765363;81;21491;-75
2023/10/01 09:03:28;;;;;;;7.58;4.53;;;;;;;16.53;75.74;100567.77;1805584;79;21023;-75
2023/10/01 09:06:24;;;;;;;6.87;3.92;;;;;;;16.55;75.75;100571.67;1810494;79;21066;-67
2023/10/01 09:08:42;;;;;;;9.40;5.10;;;;;;;16.54;75.48;100568.06;1807785;79;21095;-67
2023/10/01 09:11:17;;;;;;;10.53;4.78;;;;;;;16.50;76.16;100569.61;1760354;81;21122;-68
2023/10/01 09:14:14;;;;;;;13.70;4.60;;;;;;;16.53;76.71;100568.30;1810494;79;21451;-75
2023/10/01 09:16:32;;;;;;;6.60;3.47;;;;;;;16.62;76.57;100577.97;1807635;79;21047;-75
2023/10/01 09:19:50;;;;;;;6.25;3.60;;;;;;;16.63;75.28;100575.50;1810514;78;21019;-75
2023/10/01 09:21:39;;;;;;;8.58;3.42;;;;;;;16.56;74.25;100578.36;1747908;80;21067;-75
2023/10/01 09:24:39;;;;;;;6.58;3.50;;;;;;;16.50;74.03;100583.44;1765922;81;21055;-75
2023/10/01 09:27:18;;;;;;;6.60;3.25;;;;;;;16.48;73.75;100584.21;1811676;79;21136;-75
2023/10/01 09:29:44;;;;;;;5.80;3.10;;;;;;;16.47;73.51;100586.67;1794263;78;21114;-74
2023/10/01 09:32:13;;;;;;;7.65;2.83;;;;;;;16.48;73.21;100591.97;1828272;78;21010;-78
2023/10/01 09:34:53;;;;;;;9.30;2.92;;;;;;;16.47;72.89;100593.58;1792153;80;21011;-74
2023/10/01 09:37:34;;;;;;;7.20;2.98;;;;;;;16.48;72.68;100594.73;1828477;78;21049;-74
2023/10/01 09:40:32;;;;;;;10.20;2.95;;;;;;;16.52;72.30;100591.51;1792107;80;21038;-75
2023/10/01 09:42:45;;;;;;;8.13;3.08;;;;;;;16.51;71.74;100591.20;1824630;78;21085;-75
2023/10/01 09:45:27;;;;;;;5.75;2.70;;;;;;;16.52;71.05;100589.58;1804559;79;21465;-75
2023/10/01 09:48:09;;;;;;;6.25;2.40;;;;;;;16.53;70.84;100590.43;1795916;79;21050;-74
2023/10/01 09:50:44;;;;;;;6.85;2.65;;;;;;;16.53;71.05;100592.66;1811049;79;21230;-74
2023/10/01 09:53:17;;;;;;;8.28;2.70;;;;;;;16.53;70.29;100597.34;1869968;76;21044;-75
2023/10/01 09:55:47;;;;;;;5.47;2.27;;;;;;;16.51;69.74;100599.50;1856701;77;20981;-73
2023/10/01 09:58:28;;;;;;;7.22;2.50;;;;;;;16.52;69.54;100599.80;1856754;77;21054;-74
2023/10/01 10:01:01;;;;;;;5.72;2.10;;;;;;;16.53;69.17;100596.80;1862834;76;21018;-75
2023/10/01 10:03:36;;;;;;;7.83;2.25;;;;;;;16.55;68.69;100598.80;1801079;79;21058;-74
2023/10/01 10:06:07;;;;;;;8.00;2.80;;;;;;;16.54;68.46;100603.18;1791393;80;21033;-76
2023/10/01 10:08:39;;;;;;;7.58;2.58;;;;;;;16.54;68.50;100611.48;1791580;80;21010;-74
2023/10/01 10:11:24;;;;;;;5.97;2.35;;;;;;;16.53;68.55;100599.58;1791545;80;21038;-76
2023/10/01 10:13:57;;;;;;;9.10;2.60;;;;;;;16.56;68.53;100613.48;1788929;80;21447;-75
2023/10/01 10:16:33;;;;;;;6.22;2.65;;;;;;;16.58;68.55;100614.94;1790812;80;21078;-77
2023/10/01 10:19:21;;;;;;;9.10;2.55;;;;;;;16.65;68.36;100608.81;1788401;80;21032;-75
2023/10/01 10:24:47;;;;;;;5.97;2.40;;;;;;;16.75;67.95;100603.57;1822730;79;20157;-74
2023/10/01 10:27:32;;;;;;;7.33;2.35;;;;;;;16.77;67.97;100601.41;1818855;79;21087;-76
2023/10/01 10:30:14;;;;;;;9.60;2.42;;;;;;;16.83;68.21;100608.48;1819141;78;21432;-76
2023/10/01 10:32:44;;;;;;;5.33;2.17;;;;;;;16.93;67.79;100604.64;1818758;79;21087;-76
2023/10/01 10:35:19;;;;;;;6.30;2.35;;;;;;;17.02;67.63;100610.16;1818909;79;21480;-74
2023/10/01 10:37:53;;;;;;;6.80;2.67;;;;;;;17.13;67.21;100609.89;1818874;79;21016;-73
2023/10/01 10:40:22;;;;;;;5.83;1.98;;;;;;;17.23;67.13;100606.85;1819051;79;21056;-75
2023/10/01 10:43:04;;;;;;;8.83;2.58;;;;;;;17.36;66.41;100612.72;1818909;79;20985;-79
2023/10/01 10:45:43;;;;;;;5.12;2.25;;;;;;;17.50;66.11;100610.58;1819060;79;21448;-70
2023/10/01 10:48:20;;;;;;;5.70;2.25;;;;;;;17.62;66.82;100608.70;1818826;79;21024;-71
2023/10/01 10:51:02;;;;;;;5.90;2.27;;;;;;;17.80;66.48;100618.34;1818935;79;21056;-70
2023/10/01 10:53:39;;;;;;;6.55;2.60;;;;;;;17.93;65.04;100604.23;1808150;79;21021;-73
2023/10/01 10:56:14;;;;;;;;;;;;;;;18.06;64.45;100609.54;1817533;79;21027;-69
2023/10/01 10:58:53;;;;;;;7.45;2.65;;;;;;;18.15;63.36;100600.85;1814524;79;20180;-76
2023/10/01 11:01:20;;;;;;;6.62;2.00;;;;;;;18.21;62.43;100596.59;1885524;76;21065;-75
2023/10/01 11:03:57;;;;;;;5.62;1.98;;;;;;;18.28;61.27;100593.69;1810848;79;21540;-77
2023/10/01 11:06:29;;;;;;;5.95;2.12;;;;;;;18.30;60.20;100590.97;1885441;76;21470;-74
2023/10/01 11:09:02;;;;;;;6.30;2.27;;;;;;;18.28;59.37;100585.37;1810805;79;21030;-75
2023/10/01 11:11:39;;;;;;;6.85;2.20;;;;;;;18.26;57.55;100584.77;1811071;79;21473;-76
2023/10/01 11:14:16;;;;;;;5.22;2.00;;;;;;;18.23;57.37;100583.33;1884254;76;20971;-75
2023/10/01 11:16:49;;;;;;;6.90;2.12;;;;;;;18.20;56.85;100574.61;1811098;79;21015;-76
2023/10/01 11:19:35;;;;;;;6.00;1.90;;;;;;;18.17;56.75;100586.20;1885528;75;21047;-75
2023/10/01 11:21:59;;;;;;;5.60;2.43;;;;;;;18.17;56.95;100578.72;1884000;76;21046;-73
2023/10/01 11:24:39;;;;;;;4.97;1.85;;;;;;;18.21;56.84;100581.88;1811007;79;21042;-74
2023/10/01 11:27:40;;;;;;;5.22;2.00;;;;;;;18.25;56.66;100583.08;1885673;76;21022;-76
2023/10/01 11:30:19;;;;;;;5.15;2.00;;;;;;;18.25;56.46;100588.09;1808616;79;20995;-77
2023/10/01 11:33:12;;;;;;;5.65;1.90;;;;;;;18.20;56.08;100569.06;1815573;79;21026;-75
2023/10/01 11:35:59;;;;;;;5.17;1.87;;;;;;;18.18;56.13;100573.47;1820434;79;21014;-75
2023/10/01 11:38:32;;;;;;;4.83;2.15;;;;;;;18.19;55.86;100571.55;1816536;79;21042;-76
2023/10/01 11:41:07;;;;;;;9.35;2.35;;;;;;;18.21;56.02;100565.24;1820244;79;21091;-77
2023/10/01 11:44:01;;;;;;;5.87;2.27;;;;;;;18.25;56.16;100559.50;1816610;79;21532;-76
2023/10/01 11:49:35;;;;;;;5.08;2.17;;;;;;;18.36;56.02;100560.86;1816533;78;21067;-76
2023/10/01 11:52:25;;;;;;;8.95;2.60;;;;;;;18.40;55.80;100561.22;1809606;79;21021;-75
2023/10/01 11:54:54;;;;;;;5.15;2.37;;;;;;;18.46;55.75;100551.06;1790040;79;21041;-75
2023/10/01 11:57:31;;;;;;;7.12;2.20;;;;;;;18.53;55.22;100545.67;1790071;79;20985;-75
2023/10/01 11:59:58;;;;;;;6.97;2.45;;;;;;;18.55;55.17;100546.27;1789403;79;21390;-73
2023/10/01 12:02:43;;;;;;;6.80;2.70;;;;;;;18.60;55.20;100545.53;1790008;80;20985;-76
2023/10/01 12:05:06;;;;;;;7.57;2.50;;;;;;;18.64;55.08;100538.42;1789074;80;21472;-75
2023/10/01 12:07:45;;;;;;;4.17;2.05;;;;;;;18.61;54.79;100541.66;1789923;80;21441;-76
2023/10/01 12:10:35;;;;;;;5.45;1.92;;;;;;;18.63;54.92;100536.73;1789593;79;21029;-74
2023/10/01 12:13:07;;;;;;;5.22;2.20;;;;;;;18.69;54.37;100537.98;1789756;79;21037;-76
2023/10/01 12:15:36;;;;;;;7.97;2.72;;;;;;;18.75;53.85;100540.31;1790064;80;21048;-77
2023/10/01 12:18:14;;;;;;;7.10;2.20;;;;;;;18.82;53.26;100534.60;1789739;80;20981;-76
2023/10/01 12:20:47;;;;;;;7.87;2.35;;;;;;;18.87;52.65;100535.58;1789658;80;21064;-75
2023/10/01 12:23:11;;;;;;;4.85;1.90;;;;;;;18.92;52.55;100537.60;1789296;80;21096;-77
2023/10/01 12:28:25;;;;;;;4.22;1.98;;;;;;;19.00;52.48;100533.88;1789897;80;20997;-76
2023/10/01 12:30:58;;;;;;;5.72;2.37;;;;;;;19.05;52.02;100530.34;1789990;79;21017;-75
2023/10/01 12:33:58;;;;;;;6.85;2.00;;;;;;;19.06;51.31;100528.41;1799772;79;21554;-77
2023/10/01 12:36:03;;;;;;;5.95;1.98;;;;;;;19.07;51.09;100532.88;1798486;79;21402;-75